Saratoga-Weather Station Historical Data
 
Daily Summary for February 20, 2018 Units:  English    Metric   Both
Daily Weekly Monthly Yearly Custom
  Current: High: Low: Average:
Temperature: 49.2 °F 49.2 °F 39.6 °F 43 °F
Dew Point: 47.3 °F 47.3 °F 38.0 °F 41.7 °F
Humidity: 93% 97% 93% 95%
Wind Speed: 1.0mph 2.0mph 0.0mph 0.1mph
Wind Gust: 2.0mph 6.0mph - -
WindWest - - West
Pressure: 30.32 in 30.34 in 30.27 in -
Precipitation: 0.00 in      
Historical Graphs
 
 
Tabular Data for February 20, 2018
Time Temperature Dew Point Pressure Wind Wind Speed Wind Gust Humidity Rainfall Rate (Hourly) solar
00:01 43.6 °F 41.7 °F 30.30 in Calm   1.0 mph 93% 0.00 in VWS V15.00 W/m2
00:07 43.6 °F 41.7 °F 30.30 in Calm   2.0 mph 93% 0.00 in VWS V15.00 W/m2
00:13 43.7 °F 41.8 °F 30.29 in Calm   2.0 mph 93% 0.00 in VWS V15.00 W/m2
00:19 43.7 °F 41.8 °F 30.29 in Calm   2.0 mph 93% 0.00 in VWS V15.00 W/m2
00:26 43.7 °F 41.8 °F 30.30 in West 1.0 mph 2.0 mph 93% 0.00 in VWS V15.00 W/m2
00:32 43.8 °F 41.9 °F 30.30 in Calm     93% 0.00 in VWS V15.00 W/m2
00:38 43.8 °F 41.9 °F 30.30 in West 1.0 mph 5.0 mph 93% 0.00 in VWS V15.00 W/m2
00:44 43.9 °F 42.0 °F 30.30 in Calm   5.0 mph 93% 0.00 in VWS V15.00 W/m2
00:50 43.8 °F 41.9 °F 30.30 in Calm   5.0 mph 93% 0.00 in VWS V15.00 W/m2
00:56 43.7 °F 41.8 °F 30.30 in WSW 1.0 mph 5.0 mph 93% 0.00 in VWS V15.00 W/m2
01:02 43.6 °F 41.7 °F 30.30 in Calm   1.0 mph 93% 0.00 in VWS V15.00 W/m2
01:08 43.5 °F 41.6 °F 30.30 in Calm   1.0 mph 93% 0.00 in VWS V15.00 W/m2
01:14 43.3 °F 41.4 °F 30.30 in Calm   1.0 mph 93% 0.00 in VWS V15.00 W/m2
01:20 43.3 °F 41.4 °F 30.30 in Calm   1.0 mph 93% 0.00 in VWS V15.00 W/m2
01:26 43.3 °F 41.7 °F 30.31 in Calm   1.0 mph 94% 0.00 in VWS V15.00 W/m2
01:32 43.3 °F 41.7 °F 30.30 in Calm   1.0 mph 94% 0.00 in VWS V15.00 W/m2
01:38 43.2 °F 41.6 °F 30.30 in Calm   1.0 mph 94% 0.00 in VWS V15.00 W/m2
01:44 43.1 °F 41.5 °F 30.30 in Calm   2.0 mph 94% 0.00 in VWS V15.00 W/m2
01:50 43.0 °F 41.4 °F 30.30 in Calm   2.0 mph 94% 0.00 in VWS V15.00 W/m2
01:56 42.9 °F 41.3 °F 30.30 in Calm   2.0 mph 94% 0.00 in VWS V15.00 W/m2
02:02 42.9 °F 41.3 °F 30.30 in Calm     94% 0.00 in VWS V15.00 W/m2
02:08 42.9 °F 41.3 °F 30.30 in Calm   1.0 mph 94% 0.00 in VWS V15.00 W/m2
02:14 42.9 °F 41.6 °F 30.30 in Calm   1.0 mph 95% 0.00 in VWS V15.00 W/m2
02:20 43.0 °F 41.7 °F 30.30 in Calm   1.0 mph 95% 0.00 in VWS V15.00 W/m2
02:26 43.0 °F 41.7 °F 30.29 in Calm   1.0 mph 95% 0.00 in VWS V15.00 W/m2
02:32 43.1 °F 41.8 °F 30.29 in Calm   2.0 mph 95% 0.00 in VWS V15.00 W/m2
02:38 43.1 °F 41.8 °F 30.28 in Calm   2.0 mph 95% 0.00 in VWS V15.00 W/m2
02:44 43.0 °F 41.7 °F 30.28 in Calm   2.0 mph 95% 0.00 in VWS V15.00 W/m2
02:50 42.9 °F 41.6 °F 30.27 in Calm   2.0 mph 95% 0.00 in VWS V15.00 W/m2
02:56 42.9 °F 41.6 °F 30.27 in Calm   2.0 mph 95% 0.00 in VWS V15.00 W/m2
03:02 42.9 °F 41.6 °F 30.27 in Calm     95% 0.00 in VWS V15.00 W/m2
03:08 42.9 °F 41.6 °F 30.27 in Calm   3.0 mph 95% 0.00 in VWS V15.00 W/m2
03:14 42.9 °F 41.6 °F 30.28 in West 1.0 mph 4.0 mph 95% 0.00 in VWS V15.00 W/m2
03:20 43.0 °F 41.7 °F 30.28 in Calm   4.0 mph 95% 0.00 in VWS V15.00 W/m2
03:26 43.0 °F 41.7 °F 30.28 in Calm   4.0 mph 95% 0.00 in VWS V15.00 W/m2
03:32 42.9 °F 41.6 °F 30.27 in Calm   1.0 mph 95% 0.00 in VWS V15.00 W/m2
03:38 42.9 °F 41.6 °F 30.27 in Calm   2.0 mph 95% 0.00 in VWS V15.00 W/m2
03:44 42.8 °F 41.5 °F 30.27 in Calm   2.0 mph 95% 0.00 in VWS V15.00 W/m2
03:51 42.7 °F 41.4 °F 30.27 in Calm   2.0 mph 95% 0.00 in VWS V15.00 W/m2
03:59 42.5 °F 41.2 °F 30.27 in Calm   2.0 mph 95% 0.00 in VWS V15.00 W/m2
04:05 42.2 °F 40.9 °F 30.27 in Calm     95% 0.00 in VWS V15.00 W/m2
04:11 42.0 °F 40.7 °F 30.27 in Calm     95% 0.00 in VWS V15.00 W/m2
04:17 41.8 °F 40.5 °F 30.27 in Calm     95% 0.00 in VWS V15.00 W/m2
04:23 41.6 °F 40.0 °F 30.27 in Calm     94% 0.00 in VWS V15.00 W/m2
04:29 41.5 °F 40.2 °F 30.27 in Calm     95% 0.00 in VWS V15.00 W/m2
04:35 41.3 °F 40.0 °F 30.27 in Calm     95% 0.00 in VWS V15.00 W/m2
04:41 41.0 °F 39.4 °F 30.27 in Calm     94% 0.00 in VWS V15.00 W/m2
04:47 40.7 °F 39.1 °F 30.27 in Calm     94% 0.00 in VWS V15.00 W/m2
04:53 40.4 °F 38.8 °F 30.28 in Calm     94% 0.00 in VWS V15.00 W/m2
04:59 40.1 °F 38.5 °F 30.29 in Calm     94% 0.00 in VWS V15.00 W/m2
05:05 39.8 °F 38.2 °F 30.30 in Calm     94% 0.00 in VWS V15.00 W/m2
05:12 39.6 °F 38.0 °F 30.30 in Calm     94% 0.00 in VWS V15.00 W/m2
05:18 39.6 °F 38.3 °F 30.30 in Calm     95% 0.00 in VWS V15.00 W/m2
05:24 39.6 °F 38.3 °F 30.30 in Calm     95% 0.00 in VWS V15.00 W/m2
05:29 39.6 °F 38.3 °F 30.30 in Calm     95% 0.00 in VWS V15.00 W/m2
05:36 39.6 °F 38.3 °F 30.30 in Calm     95% 0.00 in VWS V15.00 W/m2
05:42 39.7 °F 38.4 °F 30.30 in Calm     95% 0.00 in VWS V15.00 W/m2
05:48 40.0 °F 39.0 °F 30.30 in Calm     96% 0.00 in VWS V15.00 W/m2
05:54 40.2 °F 39.2 °F 30.31 in Calm     96% 0.00 in VWS V15.00 W/m2
05:59 40.2 °F 39.2 °F 30.31 in Calm     96% 0.00 in VWS V15.00 W/m2
06:06 40.4 °F 39.3 °F 30.31 in Calm     96% 0.00 in VWS V15.00 W/m2
06:12 40.4 °F 39.3 °F 30.31 in Calm     96% 0.00 in VWS V15.00 W/m2
06:18 40.4 °F 39.3 °F 30.31 in Calm     96% 0.00 in VWS V15.00 W/m2
06:24 40.5 °F 39.5 °F 30.31 in Calm     96% 0.00 in VWS V15.00 W/m2
06:29 40.5 °F 39.5 °F 30.31 in Calm     96% 0.00 in VWS V15.00 W/m2
06:36 40.6 °F 39.5 °F 30.32 in Calm     96% 0.00 in VWS V15.00 W/m2
06:42 40.6 °F 39.5 °F 30.32 in Calm     96% 0.00 in VWS V15.00 W/m2
06:48 40.6 °F 39.5 °F 30.32 in Calm     96% 0.00 in VWS V15.00 W/m2
06:54 40.7 °F 39.7 °F 30.31 in Calm     96% 0.00 in VWS V15.00 W/m2
06:59 40.7 °F 39.7 °F 30.31 in Calm     96% 0.00 in VWS V15.00 W/m2
07:06 40.9 °F 39.8 °F 30.32 in Calm     96% 0.00 in VWS V15.00 W/m2
07:12 40.9 °F 39.8 °F 30.31 in Calm     96% 0.00 in VWS V15.00 W/m2
07:18 41.1 °F 40.0 °F 30.31 in Calm     96% 0.00 in VWS V15.00 W/m2
07:24 41.2 °F 40.2 °F 30.31 in Calm     96% 0.00 in VWS V15.00 W/m2
07:29 41.5 °F 40.5 °F 30.32 in Calm     96% 0.00 in VWS V15.00 W/m2
07:36 42.0 °F 41.2 °F 30.32 in Calm   1.0 mph 97% 0.00 in VWS V15.00 W/m2
07:42 42.4 °F 41.6 °F 30.32 in Calm   1.0 mph 97% 0.00 in VWS V15.00 W/m2
07:48 42.9 °F 42.1 °F 30.32 in Calm   1.0 mph 97% 0.00 in VWS V15.00 W/m2
07:54 43.3 °F 42.5 °F 30.33 in Calm   1.0 mph 97% 0.00 in VWS V15.00 W/m2
07:59 43.6 °F 42.8 °F 30.33 in Calm   2.0 mph 97% 0.00 in VWS V15.00 W/m2
08:06 44.0 °F 43.2 °F 30.33 in Calm   3.0 mph 97% 0.00 in VWS V15.00 W/m2
08:12 44.2 °F 43.4 °F 30.33 in Calm   3.0 mph 97% 0.00 in VWS V15.00 W/m2
08:18 44.4 °F 43.6 °F 30.33 in Calm   3.0 mph 97% 0.00 in VWS V15.00 W/m2
08:24 44.7 °F 43.9 °F 30.33 in Calm   3.0 mph 97% 0.00 in VWS V15.00 W/m2
08:29 44.9 °F 44.1 °F 30.34 in Calm   4.0 mph 97% 0.00 in VWS V15.00 W/m2
08:34 45.0 °F 44.2 °F 30.33 in Calm   1.0 mph 97% 0.00 in VWS V15.00 W/m2
08:40 45.2 °F 44.4 °F 30.33 in Calm   2.0 mph 97% 0.00 in VWS V15.00 W/m2
08:46 45.4 °F 44.6 °F 30.33 in Calm   2.0 mph 97% 0.00 in VWS V15.00 W/m2
08:52 45.7 °F 44.9 °F 30.33 in Calm   2.0 mph 97% 0.00 in VWS V15.00 W/m2
08:58 46.0 °F 45.2 °F 30.33 in Calm   6.0 mph 97% 0.00 in VWS V15.00 W/m2
09:04 46.3 °F 45.5 °F 30.33 in Calm   4.0 mph 97% 0.00 in VWS V15.00 W/m2
09:10 46.5 °F 45.7 °F 30.33 in West 1.0 mph 4.0 mph 97% 0.00 in VWS V15.00 W/m2
09:16 46.8 °F 46.0 °F 30.33 in Calm   5.0 mph 97% 0.00 in VWS V15.00 W/m2
09:22 47.1 °F 46.3 °F 30.32 in West 1.0 mph 5.0 mph 97% 0.00 in VWS V15.00 W/m2
09:28 47.6 °F 46.5 °F 30.32 in Calm   5.0 mph 96% 0.00 in VWS V15.00 W/m2
09:34 47.9 °F 46.8 °F 30.32 in Calm   1.0 mph 96% 0.00 in VWS V15.00 W/m2
09:40 48.1 °F 46.7 °F 30.32 in Calm   5.0 mph 95% 0.00 in VWS V15.00 W/m2
09:46 48.3 °F 46.7 °F 30.32 in Calm   5.0 mph 94% 0.00 in VWS V15.00 W/m2
09:52 48.6 °F 47.0 °F 30.32 in West 1.0 mph 5.0 mph 94% 0.00 in VWS V15.00 W/m2
09:58 48.9 °F 47.0 °F 30.32 in West 2.0 mph 5.0 mph 93% 0.00 in VWS V15.00 W/m2
10:04 49.2 °F 47.3 °F 30.32 in West 1.0 mph 2.0 mph 93% 0.00 in VWS V15.00 W/m2
Liberty Hills, Hanover Township, Pennsylvania, USA
Compliments of Weather Underground - 4.5 mb